General Aviation Weather

Text Reports

Enter one or more of the following location identifiers separated by a space:

Zip Code, Four-Character ICAO or Three-Character IATA airport codes.

METAR - Aviation Routine Weather Report
SPME - Tumbes,
Updated at 3:00 AM GMT on August 30, 2015 (10:00 PM PET):
METAR SPME 300300Z VRB01KT 9999 FEW017 BKN023 23/21 Q1012 RMK BIRD HAZARD RWY 32/14 PP000
TAF - Terminal Area Forecast
SPME - Tumbes,
Updated at 3:00 AM GMT on August 30, 2015 (10:00 PM PET):
TAF SPME 300500Z NIL=
Decoded:
ID: SPME   Tumbes/Pedro Ca, PR
REPORT TIME: 30  5: 0
INITIAL WX
   WEATHER: NIL
   COMMENTS: = 

PIREP - Pilot Weather Report
SPME - Tumbes,
Updated at 3:00 AM GMT on August 30, 2015 (10:00 PM PET):
No PIREP is currently available for this location.
AIRMET - Airmens Meteorological Information
SPME - Tumbes,
Updated at 3:00 AM GMT on August 30, 2015 (10:00 PM PET):
No AIRMET is currently available for this location.
SIGMET - Significant Meteorological Information
SPME - Tumbes,
Updated at 3:00 AM GMT on August 30, 2015 (10:00 PM PET):
No SIGMET is currently available for this location.
NOTAM - Notice to Airmen
SPME - Tumbes,
Updated at 3:00 AM GMT on August 30, 2015 (10:00 PM PET):
No NOTAM is currently available for this location.
Forecast Area
SPME - Tumbes,
Updated at 3:00 AM GMT on August 30, 2015 (10:00 PM PET):
No NOTAM is currently available for this location.
Aviation Weather Maps